createdAt,value
2023-01-02T00:01:22.874Z,8.27
2023-01-02T00:02:54.733Z,8.25
2023-01-02T00:04:26.589Z,9.00
2023-01-02T00:05:58.370Z,9.18
2023-01-02T00:07:30.972Z,8.02
2023-01-02T00:09:07.295Z,7.70
2023-01-02T00:10:39.024Z,8.07
2023-01-02T00:12:10.773Z,7.60
2023-01-02T00:13:42.719Z,8.38
2023-01-02T00:15:14.468Z,8.02
2023-01-02T00:16:46.185Z,8.90
2023-01-02T00:18:17.906Z,8.50
2023-01-02T00:19:49.619Z,9.80
2023-01-02T00:21:21.400Z,10.45
2023-01-02T00:22:53.157Z,8.50
2023-01-02T00:24:25.003Z,9.45
2023-01-02T00:25:56.749Z,8.95
2023-01-02T00:27:28.477Z,7.38
2023-01-02T00:29:01.670Z,8.05
2023-01-02T00:30:38.256Z,8.05
2023-01-02T00:32:10.279Z,7.68
2023-01-02T00:33:42.019Z,6.00
2023-01-02T00:35:13.833Z,6.47
2023-01-02T00:36:45.767Z,7.28
2023-01-02T00:38:18.540Z,6.28
2023-01-02T00:39:50.252Z,7.18
2023-01-02T00:41:22.529Z,7.22
2023-01-02T00:42:54.246Z,7.43
2023-01-02T00:44:25.977Z,6.95
2023-01-02T00:45:57.784Z,6.28
2023-01-02T00:47:29.517Z,6.47
2023-01-02T00:49:01.234Z,7.45
2023-01-02T00:50:32.921Z,8.35
2023-01-02T00:52:04.803Z,8.35
2023-01-02T00:53:36.921Z,6.80
2023-01-02T00:55:09.247Z,6.80
2023-01-02T00:56:40.950Z,7.97
2023-01-02T00:58:13.149Z,7.53
2023-01-02T00:59:44.881Z,7.97
2023-01-02T01:01:16.632Z,7.60
2023-01-02T01:02:48.756Z,6.57
2023-01-02T01:04:20.582Z,6.50
2023-01-02T01:05:53.880Z,7.50
2023-01-02T01:07:25.596Z,7.38
2023-01-02T01:08:57.343Z,7.88
2023-01-02T01:10:29.016Z,7.57
2023-01-02T01:12:04.744Z,7.75
2023-01-02T01:13:37.065Z,7.80
2023-01-02T01:15:09.058Z,7.95
2023-01-02T01:16:40.830Z,8.50
2023-01-02T01:18:12.652Z,7.22
2023-01-02T01:19:44.374Z,8.82
2023-01-02T01:21:20.074Z,9.02
2023-01-02T01:22:51.973Z,8.32
2023-01-02T01:24:23.802Z,6.38
2023-01-02T01:25:55.520Z,6.22
2023-01-02T01:27:27.254Z,7.32
2023-01-02T01:28:59.160Z,6.47
2023-01-02T01:30:30.851Z,6.25
2023-01-02T01:32:02.649Z,6.07
2023-01-02T01:33:34.787Z,6.53
2023-01-02T01:35:07.058Z,6.53
2023-01-02T01:36:38.818Z,5.10
2023-01-02T01:38:10.537Z,5.05
2023-01-02T01:39:42.269Z,5.55
2023-01-02T01:41:16.509Z,5.57
2023-01-02T01:42:50.392Z,5.40
2023-01-02T01:44:49.775Z,5.47
2023-01-02T01:46:38.886Z,5.57
2023-01-02T01:48:16.988Z,5.22
2023-01-02T01:50:05.255Z,5.38
2023-01-02T01:51:44.807Z,4.30
2023-01-02T01:53:22.097Z,4.45
2023-01-02T01:55:03.023Z,5.07
2023-01-02T01:56:44.287Z,5.28
2023-01-02T01:59:58.103Z,4.30
2023-01-02T02:01:30.045Z,5.35
2023-01-02T02:03:07.180Z,5.40
2023-01-02T02:04:40.290Z,5.75
2023-01-02T02:06:12.876Z,7.30
2023-01-02T02:07:55.430Z,5.97
2023-01-02T02:09:35.718Z,6.50
2023-01-02T02:11:10.178Z,5.88
2023-01-02T02:12:42.007Z,5.88
2023-01-02T02:14:13.886Z,5.70
2023-01-02T02:15:49.336Z,6.28
2023-01-02T02:17:39.062Z,5.35
2023-01-02T02:19:32.081Z,5.13
2023-01-02T02:21:32.877Z,4.25
2023-01-02T02:23:36.826Z,4.20
2023-01-02T02:25:30.679Z,4.78
2023-01-02T02:27:44.282Z,4.85
2023-01-02T02:29:26.443Z,4.65
2023-01-02T02:31:13.283Z,4.82
2023-01-02T02:33:00.712Z,5.05
2023-01-02T02:34:45.488Z,5.07
2023-01-02T02:36:28.689Z,5.65
2023-01-02T02:38:11.997Z,5.57
2023-01-02T02:40:33.067Z,6.10
2023-01-02T02:42:16.211Z,3.85
2023-01-02T02:44:02.938Z,5.68
2023-01-02T02:45:53.924Z,5.35
2023-01-02T02:47:35.948Z,4.38
2023-01-02T02:49:17.725Z,4.85
2023-01-02T02:51:02.946Z,4.45
2023-01-02T02:52:41.506Z,4.50
2023-01-02T02:54:21.917Z,4.57
2023-01-02T02:56:00.014Z,5.32
2023-01-02T02:57:32.965Z,4.82
2023-01-02T02:59:05.180Z,4.57
2023-01-02T03:00:37.000Z,4.38
2023-01-02T03:02:13.846Z,4.95
2023-01-02T03:03:45.733Z,4.35
2023-01-02T03:05:29.821Z,5.32
2023-01-02T03:07:19.536Z,4.57
2023-01-02T03:09:04.863Z,4.90
2023-01-02T03:10:48.864Z,4.72
2023-01-02T03:12:29.356Z,4.78
2023-01-02T03:14:12.369Z,4.73
2023-01-02T03:16:00.291Z,5.28
2023-01-02T03:17:52.586Z,5.40
2023-01-02T03:19:38.474Z,5.30
2023-01-02T03:21:22.541Z,6.18
2023-01-02T03:23:04.482Z,5.20
2023-01-02T03:24:37.690Z,3.90
2023-01-02T03:26:12.368Z,5.10
2023-01-02T03:27:45.929Z,6.63
2023-01-02T03:29:33.447Z,6.18
2023-01-02T03:31:09.671Z,4.38
2023-01-02T03:32:48.805Z,5.00
2023-01-02T03:34:24.704Z,6.70
2023-01-02T03:36:10.145Z,5.75
2023-01-02T03:37:49.337Z,5.32
2023-01-02T03:39:26.163Z,4.93
2023-01-02T03:41:07.019Z,5.07
2023-01-02T03:42:56.707Z,6.20
2023-01-02T03:44:38.877Z,4.85
2023-01-02T03:46:38.556Z,4.88
2023-01-02T03:48:20.484Z,3.97
2023-01-02T03:49:55.807Z,4.32
2023-01-02T03:51:27.603Z,4.13
2023-01-02T03:52:59.966Z,4.45
2023-01-02T03:54:31.980Z,4.05
2023-01-02T03:56:21.905Z,4.07
2023-01-02T03:58:31.048Z,3.20
2023-01-02T04:00:13.437Z,3.60
2023-01-02T04:02:15.798Z,3.22
2023-01-02T04:03:53.441Z,3.03
2023-01-02T04:05:34.870Z,3.60
2023-01-02T04:07:12.775Z,2.83
2023-01-02T04:08:49.625Z,2.90
2023-01-02T04:10:22.727Z,3.40
2023-01-02T04:12:03.753Z,3.97
2023-01-02T04:13:40.846Z,3.53
2023-01-02T04:15:15.260Z,3.72
2023-01-02T04:16:50.451Z,4.35
2023-01-02T04:18:26.695Z,4.05
2023-01-02T04:20:06.573Z,4.43
2023-01-02T04:21:41.052Z,3.75
2023-01-02T04:23:48.460Z,3.80
2023-01-02T04:25:20.845Z,3.78
2023-01-02T04:26:59.634Z,4.28
2023-01-02T04:28:34.216Z,4.80
2023-01-02T04:30:06.516Z,5.13
2023-01-02T04:31:42.490Z,5.57
2023-01-02T04:33:16.156Z,5.35
2023-01-02T04:34:49.798Z,4.18
2023-01-02T04:36:22.645Z,4.55
2023-01-02T04:37:54.378Z,5.15
2023-01-02T04:39:27.979Z,3.85
2023-01-02T04:40:59.994Z,4.53
2023-01-02T04:42:31.711Z,5.22
2023-01-02T04:44:03.811Z,5.80
2023-01-02T04:45:35.561Z,5.10
2023-01-02T04:47:09.371Z,5.10
2023-01-02T04:48:41.076Z,5.55
2023-01-02T04:50:12.804Z,5.65
2023-01-02T04:51:44.691Z,5.35
2023-01-02T04:53:16.476Z,5.43
2023-01-02T04:54:48.206Z,5.28
2023-01-02T04:56:20.436Z,5.13
2023-01-02T04:57:52.203Z,4.63
2023-01-02T04:59:23.941Z,4.80
2023-01-02T05:00:55.657Z,5.20
2023-01-02T05:02:27.481Z,3.65
2023-01-02T05:03:59.272Z,4.72
2023-01-02T05:05:31.658Z,5.30
2023-01-02T05:07:04.144Z,4.68
2023-01-02T05:08:37.774Z,4.70
2023-01-02T05:10:10.087Z,5.40
2023-01-02T05:11:41.882Z,3.90
2023-01-02T05:13:13.637Z,4.07
2023-01-02T05:14:46.768Z,4.57
2023-01-02T05:16:18.488Z,4.15
2023-01-02T05:17:50.249Z,3.95
2023-01-02T05:19:21.967Z,3.72
2023-01-02T05:20:53.692Z,4.38
2023-01-02T05:22:44.199Z,3.97
2023-01-02T05:24:15.893Z,4.80
2023-01-02T05:25:47.591Z,4.13
2023-01-02T05:27:19.322Z,4.45
2023-01-02T05:28:54.480Z,4.13
2023-01-02T05:30:26.325Z,5.05
2023-01-02T05:31:58.303Z,4.32
2023-01-02T05:33:30.037Z,5.03
2023-01-02T05:35:01.963Z,5.78
2023-01-02T05:36:33.684Z,5.57
2023-01-02T05:38:05.444Z,4.93
2023-01-02T05:39:37.133Z,6.07
2023-01-02T05:41:08.904Z,6.00
2023-01-02T05:42:41.220Z,5.95
2023-01-02T05:44:12.971Z,5.55
2023-01-02T05:45:44.683Z,6.10
2023-01-02T05:47:16.745Z,7.63
2023-01-02T05:48:48.573Z,7.07
2023-01-02T05:50:20.316Z,8.00
2023-01-02T05:51:52.032Z,7.38
2023-01-02T05:53:23.808Z,7.18
2023-01-02T05:54:55.518Z,6.78
2023-01-02T05:56:29.059Z,7.15
2023-01-02T05:58:02.544Z,5.47
2023-01-02T05:59:36.274Z,5.47
2023-01-02T06:01:17.039Z,5.45
2023-01-02T06:02:48.994Z,5.60
2023-01-02T06:04:20.941Z,5.32
2023-01-02T06:05:52.660Z,5.78
2023-01-02T06:07:24.396Z,5.65
2023-01-02T06:08:56.280Z,6.25
2023-01-02T06:10:28.062Z,5.78
2023-01-02T06:11:59.792Z,4.57
2023-01-02T06:13:33.106Z,5.35
2023-01-02T06:15:05.134Z,4.63
2023-01-02T06:16:38.014Z,5.95
2023-01-02T06:18:09.766Z,5.97
2023-01-02T06:19:41.477Z,6.30
2023-01-02T06:21:15.953Z,5.28
2023-01-02T06:22:47.886Z,5.07
2023-01-02T06:24:19.620Z,6.20
2023-01-02T06:25:51.382Z,6.10
2023-01-02T06:27:23.113Z,5.43
2023-01-02T06:28:57.345Z,6.38
2023-01-02T06:30:29.104Z,6.30
2023-01-02T06:32:00.859Z,6.35
2023-01-02T06:33:33.119Z,5.75
2023-01-02T06:35:05.241Z,6.00
2023-01-02T06:36:36.976Z,6.10
2023-01-02T06:38:09.599Z,7.20
2023-01-02T06:39:41.302Z,8.07
2023-01-02T06:41:14.509Z,6.57
2023-01-02T06:42:46.235Z,6.82
2023-01-02T06:44:17.933Z,5.93
2023-01-02T06:45:49.962Z,7.13
2023-01-02T06:47:21.720Z,6.03
2023-01-02T06:48:53.481Z,6.20
2023-01-02T06:50:31.238Z,8.10
2023-01-02T06:52:06.299Z,8.85
2023-01-02T06:53:40.589Z,6.65
2023-01-02T06:55:12.293Z,7.65
2023-01-02T06:56:44.028Z,7.75
2023-01-02T06:58:19.402Z,8.00
2023-01-02T06:59:51.419Z,6.07
2023-01-02T07:01:23.671Z,5.97
2023-01-02T07:02:55.648Z,7.78
2023-01-02T07:04:27.516Z,7.95
2023-01-02T07:06:08.078Z,7.80
2023-01-02T07:07:39.924Z,7.30
2023-01-02T07:09:11.666Z,8.75
2023-01-02T07:10:46.707Z,8.60
2023-01-02T07:12:22.666Z,7.05
2023-01-02T07:13:55.109Z,7.05
2023-01-02T07:15:27.176Z,6.90
2023-01-02T07:16:59.012Z,7.32
2023-01-02T07:18:31.377Z,7.00
2023-01-02T07:20:03.130Z,6.85
2023-01-02T07:21:34.969Z,9.00
2023-01-02T07:23:06.711Z,7.82
2023-01-02T07:24:39.093Z,8.57
2023-01-02T07:26:11.291Z,7.85
2023-01-02T07:27:43.054Z,10.18
2023-01-02T07:29:14.999Z,7.97
2023-01-02T07:30:46.720Z,8.98
2023-01-02T07:32:23.876Z,10.93
2023-01-02T07:33:59.154Z,10.32
2023-01-02T07:35:30.867Z,9.02
2023-01-02T07:37:02.656Z,9.40
2023-01-02T07:38:34.861Z,10.73
2023-01-02T07:40:07.210Z,10.27
2023-01-02T07:41:38.960Z,10.73
2023-01-02T07:43:19.101Z,9.80
2023-01-02T07:44:50.830Z,10.88
2023-01-02T07:46:23.415Z,11.18
2023-01-02T07:47:55.188Z,10.77
2023-01-02T07:49:26.880Z,10.65
2023-01-02T07:51:02.740Z,11.55
2023-01-02T07:52:34.472Z,10.73
2023-01-02T07:54:06.194Z,11.05
2023-01-02T07:55:37.958Z,12.93
2023-01-02T07:57:09.712Z,10.30
2023-01-02T07:58:41.465Z,15.48
2023-01-02T08:00:13.772Z,11.70
2023-01-02T08:01:46.046Z,10.93
2023-01-02T08:03:18.913Z,12.50
2023-01-02T08:04:50.675Z,11.00
2023-01-02T08:06:22.414Z,13.00
2023-01-02T08:07:54.132Z,13.43
2023-01-02T08:09:25.870Z,12.57
2023-01-02T08:10:57.577Z,11.80
2023-01-02T08:12:29.307Z,11.77
2023-01-02T08:14:01.063Z,12.25
2023-01-02T08:15:34.084Z,11.15
2023-01-02T08:17:06.133Z,12.07
2023-01-02T08:18:38.486Z,11.82
2023-01-02T08:20:11.141Z,11.82
2023-01-02T08:21:42.865Z,11.95
2023-01-02T08:23:14.633Z,13.02
2023-01-02T08:24:46.365Z,12.48
2023-01-02T08:26:18.491Z,14.52
2023-01-02T08:27:50.543Z,12.48
2023-01-02T08:29:22.230Z,12.45
2023-01-02T08:30:54.022Z,11.93
2023-01-02T08:32:25.809Z,14.07
2023-01-02T08:33:57.551Z,11.30
2023-01-02T08:35:37.793Z,11.48
2023-01-02T08:37:10.417Z,12.30
2023-01-02T08:38:43.146Z,13.27
2023-01-02T08:40:15.085Z,11.73
2023-01-02T08:41:46.823Z,11.68
2023-01-02T08:43:18.596Z,13.20
2023-01-02T08:44:50.422Z,11.57
2023-01-02T08:46:22.140Z,11.25
2023-01-02T08:47:54.028Z,12.77
2023-01-02T08:49:25.774Z,13.30
2023-01-02T08:50:57.518Z,12.50
2023-01-02T08:52:30.966Z,12.80
2023-01-02T08:54:02.670Z,11.07
2023-01-02T08:55:34.465Z,12.13
2023-01-02T08:57:06.232Z,12.07
2023-01-02T08:58:37.964Z,11.57
2023-01-02T09:00:10.756Z,11.65
2023-01-02T09:01:43.079Z,12.23
2023-01-02T09:03:15.090Z,11.07
2023-01-02T09:04:47.055Z,12.30
2023-01-02T09:06:22.059Z,11.65
2023-01-02T09:07:54.156Z,10.65
2023-01-02T09:09:25.854Z,12.23
2023-01-02T09:10:57.794Z,11.95
2023-01-02T09:12:29.589Z,12.00
2023-01-02T09:14:02.340Z,12.60
2023-01-02T09:15:34.142Z,12.18
2023-01-02T09:17:06.054Z,11.57
2023-01-02T09:18:39.218Z,12.07
2023-01-02T09:20:11.160Z,13.00
2023-01-02T09:21:42.928Z,11.90
2023-01-02T09:23:14.665Z,13.38
2023-01-02T09:24:46.992Z,12.55
2023-01-02T09:26:19.191Z,11.45
2023-01-02T09:27:51.648Z,12.18
2023-01-02T09:29:23.385Z,12.25
2023-01-02T09:30:55.609Z,12.25
2023-01-02T09:32:27.355Z,11.60
2023-01-02T09:33:59.092Z,15.30
2023-01-02T09:35:30.842Z,11.57
2023-01-02T09:37:02.610Z,13.00
2023-01-02T09:38:35.033Z,12.52
2023-01-02T09:40:07.541Z,13.10
2023-01-02T09:41:45.629Z,12.55
2023-01-02T09:43:23.151Z,12.50
2023-01-02T09:45:06.443Z,12.82
2023-01-02T09:46:46.286Z,12.77
2023-01-02T09:48:20.466Z,14.32
2023-01-02T09:49:55.727Z,12.30
2023-01-02T09:51:27.697Z,17.98
2023-01-02T09:53:00.829Z,12.55
2023-01-02T09:54:33.620Z,11.57
2023-01-02T09:56:19.349Z,13.05
2023-01-02T09:58:19.472Z,13.23
2023-01-02T10:00:17.081Z,12.18
2023-01-02T10:02:00.097Z,12.23
2023-01-02T10:03:59.850Z,12.00
2023-01-02T10:05:44.603Z,12.05
2023-01-02T10:07:24.779Z,11.35
2023-01-02T10:09:02.106Z,12.80
2023-01-02T10:10:41.550Z,12.68
2023-01-02T10:12:28.911Z,13.35
2023-01-02T10:14:20.172Z,11.18
2023-01-02T10:15:54.309Z,11.85
2023-01-02T10:17:29.655Z,11.10
2023-01-02T10:19:06.791Z,11.15
2023-01-02T10:20:44.902Z,12.65
2023-01-02T10:22:22.481Z,11.82
2023-01-02T10:24:14.441Z,11.00
2023-01-02T10:25:53.239Z,10.70
2023-01-02T10:27:31.754Z,12.75
2023-01-02T10:29:12.526Z,12.50
2023-01-02T10:30:50.676Z,10.88
2023-01-02T10:32:23.259Z,10.77
2023-01-02T10:33:59.923Z,9.57
2023-01-02T10:35:56.728Z,11.07
2023-01-02T10:37:28.557Z,10.57
2023-01-02T10:39:04.309Z,12.95
2023-01-02T10:40:37.371Z,9.88
2023-01-02T10:42:12.572Z,13.00
2023-01-02T10:43:54.636Z,11.77
2023-01-02T10:45:26.502Z,10.38
2023-01-02T10:46:59.723Z,10.75
2023-01-02T10:48:35.319Z,9.98
2023-01-02T10:50:14.616Z,10.73
2023-01-02T10:51:53.358Z,9.88
2023-01-02T10:53:33.772Z,10.40
2023-01-02T10:55:05.739Z,11.23
2023-01-02T10:56:39.707Z,10.48
2023-01-02T10:58:22.046Z,10.88
2023-01-02T10:59:59.847Z,10.40
2023-01-02T11:01:59.988Z,9.85
2023-01-02T11:03:31.987Z,11.35
2023-01-02T11:05:05.469Z,10.38
2023-01-02T11:06:52.279Z,10.30
2023-01-02T11:08:35.175Z,10.32
2023-01-02T11:10:24.187Z,11.68
2023-01-02T11:12:11.007Z,9.85
2023-01-02T11:13:55.878Z,9.98
2023-01-02T11:15:31.073Z,10.20
2023-01-02T11:17:14.517Z,9.65
2023-01-02T11:18:53.081Z,10.20
2023-01-02T11:20:26.900Z,10.18
2023-01-02T11:21:58.626Z,9.88
2023-01-02T11:23:39.986Z,10.05
2023-01-02T11:26:54.104Z,10.07
2023-01-02T11:28:28.626Z,9.38
2023-01-02T11:30:01.772Z,9.13
2023-01-02T11:31:33.675Z,9.93
2023-01-02T11:33:19.737Z,10.70
2023-01-02T11:34:59.806Z,10.55
2023-01-02T11:36:31.565Z,10.15
2023-01-02T11:38:05.261Z,9.43
2023-01-02T11:39:37.567Z,10.18
2023-01-02T11:42:08.615Z,10.13
2023-01-02T11:43:49.217Z,8.52
2023-01-02T11:45:21.676Z,8.40
2023-01-02T11:46:55.316Z,8.43
2023-01-02T11:48:28.963Z,8.40
2023-01-02T11:50:01.040Z,10.85
2023-01-02T11:51:38.424Z,9.70
2023-01-02T11:53:12.672Z,10.20
2023-01-02T11:54:50.081Z,9.35
2023-01-02T11:56:35.534Z,10.07
2023-01-02T11:58:22.697Z,9.43
2023-01-02T11:59:57.941Z,9.57
2023-01-02T12:01:57.189Z,9.90
2023-01-02T12:03:30.676Z,10.07
2023-01-02T12:05:07.744Z,10.02
2023-01-02T12:07:06.043Z,10.05
2023-01-02T12:08:51.379Z,9.98
2023-01-02T12:10:43.547Z,9.35
2023-01-02T12:12:39.643Z,8.95
2023-01-02T12:14:16.850Z,10.68
2023-01-02T12:15:58.649Z,9.98
2023-01-02T12:17:53.884Z,9.55
2023-01-02T12:19:58.238Z,9.43
2023-01-02T12:22:13.587Z,8.05
2023-01-02T12:23:57.204Z,8.25
2023-01-02T12:26:04.309Z,9.15
2023-01-02T12:28:02.516Z,7.90
2023-01-02T12:29:59.315Z,7.95
2023-01-02T12:31:55.060Z,9.23
2023-01-02T12:33:41.775Z,8.68
2023-01-02T12:35:30.402Z,8.02
2023-01-02T12:37:19.873Z,8.30
2023-01-02T12:39:05.858Z,8.30
2023-01-02T12:40:49.732Z,7.45
2023-01-02T12:42:48.842Z,8.65
2023-01-02T12:44:26.081Z,8.77
2023-01-02T12:46:10.805Z,8.27
2023-01-02T12:48:02.483Z,9.00
2023-01-02T12:53:12.558Z,5.93
2023-01-02T12:54:50.256Z,7.25
2023-01-02T12:56:48.086Z,8.05
2023-01-02T12:58:47.870Z,7.80
2023-01-02T13:00:44.414Z,6.97
2023-01-02T13:02:59.282Z,6.38
2023-01-02T13:04:35.853Z,6.50
2023-01-02T13:06:43.931Z,6.72
2023-01-02T13:08:24.149Z,6.90
2023-01-02T13:10:00.729Z,7.95
2023-01-02T13:11:40.499Z,6.97
2023-01-02T13:13:13.725Z,6.78
2023-01-02T13:15:00.943Z,7.53
2023-01-02T13:16:34.878Z,7.00
2023-01-02T13:18:14.704Z,7.32
2023-01-02T13:20:15.886Z,6.00
2023-01-02T13:21:59.055Z,6.03
2023-01-02T13:23:34.782Z,7.35
2023-01-02T13:25:18.628Z,7.72
2023-01-02T13:26:53.358Z,6.43
2023-01-02T13:28:25.255Z,8.40
2023-01-02T13:29:56.978Z,7.75
2023-01-02T13:31:46.684Z,7.30
2023-01-02T13:33:38.202Z,7.07
2023-01-02T13:35:11.023Z,7.72
2023-01-02T13:36:46.255Z,7.13
2023-01-02T13:38:19.633Z,6.78
2023-01-02T13:39:56.940Z,6.78
2023-01-02T13:41:31.289Z,7.03
2023-01-02T13:43:06.746Z,8.65
2023-01-02T13:44:42.550Z,7.35
2023-01-02T13:47:00.991Z,8.15
2023-01-02T13:48:22.551Z,6.63
2023-01-02T13:50:09.731Z,6.07
2023-01-02T13:51:42.526Z,6.40
2023-01-02T13:53:14.187Z,7.60
2023-01-02T13:55:31.140Z,6.32
2023-01-02T13:57:28.879Z,6.65
2023-01-02T13:59:42.062Z,5.20
2023-01-02T14:01:22.319Z,5.93
2023-01-02T14:03:23.137Z,5.13
2023-01-02T14:04:55.160Z,5.28
2023-01-02T14:06:32.192Z,6.05
2023-01-02T14:08:23.449Z,5.10
2023-01-02T14:10:10.193Z,7.68
2023-01-02T14:11:58.926Z,6.45
2023-01-02T14:13:50.172Z,5.38
2023-01-02T14:15:24.964Z,5.82
2023-01-02T14:17:33.864Z,5.55
2023-01-02T14:19:18.308Z,5.00
2023-01-02T14:20:50.322Z,5.90
2023-01-02T14:22:22.831Z,5.40
2023-01-02T14:24:17.093Z,6.38
2023-01-02T14:25:50.644Z,4.82
2023-01-02T14:27:29.048Z,5.57
2023-01-02T14:29:09.475Z,4.32
2023-01-02T14:30:42.447Z,5.23
2023-01-02T14:32:34.137Z,4.88
2023-01-02T14:34:06.519Z,5.45
2023-01-02T14:35:41.473Z,6.43
2023-01-02T14:37:27.533Z,7.75
2023-01-02T14:38:59.490Z,5.57
2023-01-02T14:40:32.950Z,6.22
2023-01-02T14:43:14.174Z,6.75
2023-01-02T14:44:51.431Z,7.13
2023-01-02T14:46:26.546Z,5.30
2023-01-02T14:48:05.641Z,6.40
2023-01-02T14:49:38.555Z,6.43
2023-01-02T14:51:20.286Z,6.50
2023-01-02T14:53:00.029Z,6.32
2023-01-02T14:54:55.657Z,7.30
2023-01-02T14:56:35.249Z,5.82
2023-01-02T14:58:14.757Z,6.85
2023-01-02T14:59:49.776Z,6.68
2023-01-02T15:01:43.423Z,6.20
2023-01-02T15:03:42.706Z,5.68
2023-01-02T15:05:21.843Z,6.18
2023-01-02T15:07:19.640Z,5.40
2023-01-02T15:08:53.328Z,4.85
2023-01-02T15:10:25.578Z,5.28
2023-01-02T15:12:18.871Z,5.40
2023-01-02T15:14:05.170Z,5.53
2023-01-02T15:15:53.840Z,5.95
2023-01-02T15:17:26.116Z,5.80
2023-01-02T15:19:00.049Z,5.63
2023-01-02T15:20:34.346Z,4.95
2023-01-02T15:22:29.169Z,5.15
2023-01-02T15:24:02.096Z,4.72
2023-01-02T15:25:37.404Z,7.13
2023-01-02T15:27:23.544Z,5.18
2023-01-02T15:29:02.196Z,5.50
2023-01-02T15:30:40.291Z,5.18
2023-01-02T15:32:19.777Z,6.85
2023-01-02T15:34:02.797Z,4.55
2023-01-02T15:35:36.296Z,5.63
2023-01-02T15:37:08.130Z,4.88
2023-01-02T15:38:40.593Z,5.07
2023-01-02T15:40:17.072Z,5.07
2023-01-02T15:41:52.737Z,5.53
2023-01-02T15:43:45.439Z,6.13
2023-01-02T15:45:17.856Z,5.30
2023-01-02T15:46:50.144Z,5.68
2023-01-02T15:48:24.103Z,5.28
2023-01-02T15:49:57.487Z,5.95
2023-01-02T15:51:41.201Z,5.25
2023-01-02T15:53:43.738Z,5.68
2023-01-02T15:56:49.434Z,3.42
2023-01-02T15:58:25.551Z,3.92
2023-01-02T15:59:57.477Z,4.32
2023-01-02T16:01:29.483Z,4.35
2023-01-02T16:03:01.826Z,4.38
2023-01-02T16:04:34.388Z,6.10
2023-01-02T16:06:13.843Z,4.72
2023-01-02T16:07:54.218Z,6.22
2023-01-02T16:09:29.183Z,4.85
2023-01-02T16:11:04.550Z,5.40
2023-01-02T16:12:36.386Z,5.20
2023-01-02T16:14:20.231Z,5.35
2023-01-02T16:16:16.619Z,4.43
2023-01-02T16:17:49.326Z,3.88
2023-01-02T16:19:34.445Z,4.43
2023-01-02T16:21:07.587Z,5.03
2023-01-02T16:22:48.932Z,4.53
2023-01-02T16:25:54.801Z,3.33
2023-01-02T16:27:32.392Z,4.57
2023-01-02T16:29:04.124Z,4.47
2023-01-02T16:30:41.443Z,4.88
2023-01-02T16:32:33.190Z,5.70
2023-01-02T16:34:15.475Z,5.20
2023-01-02T16:35:59.876Z,4.85
2023-01-02T16:37:34.903Z,5.22
2023-01-02T16:39:45.369Z,4.88
2023-01-02T16:41:48.105Z,4.10
2023-01-02T16:43:21.182Z,4.40
2023-01-02T16:44:56.831Z,5.15
2023-01-02T16:46:30.368Z,6.38
2023-01-02T16:48:05.393Z,8.65
2023-01-02T16:49:37.731Z,7.13
2023-01-02T16:51:09.597Z,8.90
2023-01-02T16:52:41.402Z,8.38
2023-01-02T16:54:14.904Z,6.65
2023-01-02T16:55:47.094Z,5.85
2023-01-02T16:57:22.400Z,6.13
2023-01-02T16:58:54.135Z,6.47
2023-01-02T17:00:25.939Z,6.18
2023-01-02T17:01:57.798Z,6.32
2023-01-02T17:03:29.661Z,5.07
2023-01-02T17:05:02.325Z,6.20
2023-01-02T17:06:34.147Z,5.50
2023-01-02T17:08:06.152Z,7.00
2023-01-02T17:09:37.870Z,4.78
2023-01-02T17:11:15.009Z,5.53
2023-01-02T17:12:47.007Z,4.95
2023-01-02T17:14:18.684Z,4.82
2023-01-02T17:15:50.343Z,4.88
2023-01-02T17:17:21.995Z,4.68
2023-01-02T17:18:53.667Z,5.35
2023-01-02T17:20:26.848Z,5.97
2023-01-02T17:21:58.536Z,6.50
2023-01-02T17:23:30.258Z,4.95
2023-01-02T17:25:03.800Z,5.97
2023-01-02T17:26:36.353Z,4.65
2023-01-02T17:28:08.044Z,5.30
2023-01-02T17:29:39.733Z,5.18
2023-01-02T17:31:14.495Z,6.55
2023-01-02T17:32:47.310Z,4.78
2023-01-02T17:34:18.984Z,4.07
2023-01-02T17:35:51.092Z,5.35
2023-01-02T17:37:24.647Z,4.35
2023-01-02T17:38:56.742Z,4.10
2023-01-02T17:40:28.510Z,4.78
2023-01-02T17:42:00.240Z,4.93
2023-01-02T17:43:31.955Z,4.28
2023-01-02T17:45:04.088Z,4.80
2023-01-02T17:48:27.869Z,4.00
2023-01-02T17:49:59.663Z,5.40
2023-01-02T17:51:31.407Z,5.55
2023-01-02T17:53:03.144Z,4.70
2023-01-02T17:54:35.590Z,4.75
2023-01-02T17:56:21.401Z,4.47
2023-01-02T17:57:54.211Z,3.97
2023-01-02T17:59:25.954Z,5.22
2023-01-02T18:00:57.923Z,5.78
2023-01-02T18:02:29.766Z,4.80
2023-01-02T18:04:01.706Z,6.75
2023-01-02T18:05:35.814Z,4.63
2023-01-02T18:07:07.497Z,5.20
2023-01-02T18:08:39.253Z,5.65
2023-01-02T18:10:13.528Z,5.65
2023-01-02T18:11:49.237Z,4.43
2023-01-02T18:13:20.980Z,5.95
2023-01-02T18:14:56.210Z,5.55
2023-01-02T18:16:38.877Z,4.80
2023-01-02T18:18:15.993Z,3.92
2023-01-02T18:19:48.678Z,5.55
2023-01-02T18:21:22.821Z,4.93
2023-01-02T18:22:54.568Z,5.07
2023-01-02T18:24:30.763Z,4.72
2023-01-02T18:26:02.590Z,4.70
2023-01-02T18:27:35.594Z,6.32
2023-01-02T18:29:19.586Z,4.90
2023-01-02T18:30:56.421Z,5.85
2023-01-02T18:32:34.873Z,4.95
2023-01-02T18:34:46.503Z,4.68
2023-01-02T18:36:18.614Z,3.65
2023-01-02T18:39:31.032Z,3.72
2023-01-02T18:41:21.507Z,4.35
2023-01-02T18:42:56.647Z,4.75
2023-01-02T18:44:29.165Z,4.47
2023-01-02T18:46:12.095Z,5.50
2023-01-02T18:47:46.174Z,7.03
2023-01-02T18:49:22.604Z,4.80
2023-01-02T18:51:02.421Z,5.43
2023-01-02T18:52:36.395Z,6.38
2023-01-02T18:54:18.775Z,5.63
2023-01-02T18:55:53.647Z,6.00
2023-01-02T18:57:29.830Z,6.80
2023-01-02T18:59:29.442Z,6.72
2023-01-02T19:01:17.503Z,4.63
2023-01-02T19:03:08.959Z,4.45
2023-01-02T19:04:40.744Z,4.72
2023-01-02T19:06:22.350Z,4.95
2023-01-02T19:08:02.122Z,4.90
2023-01-02T19:09:35.162Z,5.80
2023-01-02T19:11:51.267Z,5.40
2023-01-02T19:13:41.050Z,5.13
2023-01-02T19:15:34.710Z,5.68
2023-01-02T19:17:24.955Z,3.55
2023-01-02T19:18:57.225Z,5.47
2023-01-02T19:20:28.920Z,5.30
2023-01-02T19:22:01.257Z,6.07
2023-01-02T19:23:45.012Z,6.50
2023-01-02T19:25:20.182Z,5.65
2023-01-02T19:26:57.979Z,5.70
2023-01-02T19:28:33.576Z,5.40
2023-01-02T19:30:29.586Z,6.00
2023-01-02T19:32:30.689Z,5.13
2023-01-02T19:34:03.169Z,4.93
2023-01-02T19:35:34.921Z,4.68
2023-01-02T19:37:24.121Z,6.72
2023-01-02T19:38:55.938Z,6.03
2023-01-02T19:40:27.639Z,6.32
2023-01-02T19:42:31.664Z,6.85
2023-01-02T19:44:03.570Z,6.00
2023-01-02T19:45:35.330Z,6.32
2023-01-02T19:47:07.320Z,5.32
2023-01-02T19:48:39.249Z,6.63
2023-01-02T19:50:14.474Z,5.50
2023-01-02T19:51:46.184Z,5.93
2023-01-02T19:53:18.164Z,5.82
2023-01-02T19:54:50.553Z,6.45
2023-01-02T19:56:22.255Z,6.68
2023-01-02T19:57:54.288Z,6.30
2023-01-02T19:59:26.091Z,6.72
2023-01-02T20:00:58.072Z,7.43
2023-01-02T20:02:29.913Z,7.95
2023-01-02T20:04:01.851Z,7.18
2023-01-02T20:05:33.758Z,8.30
2023-01-02T20:07:05.743Z,8.60
2023-01-02T20:08:37.567Z,10.98
2023-01-02T20:10:10.212Z,10.48
2023-01-02T20:12:07.259Z,9.70
2023-01-02T20:13:39.377Z,8.40
2023-01-02T20:15:23.817Z,10.30
2023-01-02T20:16:55.918Z,8.35
2023-01-02T20:18:27.972Z,8.23
2023-01-02T20:20:00.208Z,9.32
2023-01-02T20:21:32.015Z,9.98
2023-01-02T20:23:03.864Z,10.10
2023-01-02T20:24:35.620Z,10.80
2023-01-02T20:26:07.348Z,10.77
2023-01-02T20:27:39.563Z,12.15
2023-01-02T20:29:12.313Z,10.88
2023-01-02T20:30:44.094Z,13.52
2023-01-02T20:32:15.850Z,11.52
2023-01-02T20:33:47.569Z,13.50
2023-01-02T20:35:19.386Z,15.07
2023-01-02T20:36:51.597Z,10.75
2023-01-02T20:38:23.710Z,14.77
2023-01-02T20:39:55.454Z,16.13
2023-01-02T20:41:27.126Z,17.80
2023-01-02T20:42:58.880Z,18.38
2023-01-02T20:44:30.595Z,17.88
2023-01-02T20:46:02.386Z,18.80
2023-01-02T20:47:36.447Z,18.08
2023-01-02T20:49:08.978Z,21.27
2023-01-02T20:50:40.783Z,19.98
2023-01-02T20:52:12.701Z,21.92
2023-01-02T20:53:45.314Z,22.80
2023-01-02T20:55:17.143Z,22.10
2023-01-02T20:56:48.914Z,22.55
2023-01-02T20:58:20.685Z,23.48
2023-01-02T20:59:52.536Z,25.25
2023-01-02T21:01:24.825Z,21.95
2023-01-02T21:02:57.101Z,23.48
2023-01-02T21:04:36.180Z,22.33
2023-01-02T21:06:08.362Z,22.65
2023-01-02T21:07:40.094Z,22.83
2023-01-02T21:09:13.593Z,26.30
2023-01-02T21:10:45.464Z,23.95
2023-01-02T21:12:35.977Z,23.52
2023-01-02T21:14:07.807Z,26.35
2023-01-02T21:15:55.367Z,27.38
2023-01-02T21:17:27.122Z,24.48
2023-01-02T21:18:59.882Z,25.08
2023-01-02T21:20:31.575Z,24.67
2023-01-02T21:22:03.311Z,24.85
2023-01-02T21:23:37.085Z,26.23
2023-01-02T21:25:08.839Z,28.27
2023-01-02T21:26:40.553Z,26.08
2023-01-02T21:28:13.958Z,27.77
2023-01-02T21:29:46.079Z,29.25
2023-01-02T21:31:20.185Z,27.58
2023-01-02T21:32:51.988Z,26.88
2023-01-02T21:34:23.691Z,27.80
2023-01-02T21:35:58.581Z,26.77
2023-01-02T21:37:30.248Z,28.27
2023-01-02T21:39:01.988Z,24.27